Time;durP1;ratioP1;P1;durP2;ratioP2;P2;SDS_P1;SDS_P2;PMS_P1;PMS_P2;Temp;Humidity;BMP_temperature;BMP_pressure;BME280_temperature;BME280_humidity;BME280_pressure;Samples;Min_cycle;Max_cycle;Signal;HPM_P1;HPM_P2
2022/05/31 00:00:34;;;;;;;4.05;2.75;;;;;;;18.22;33.35;100990.72;5025278;28;20136;-69
2022/05/31 00:03:02;;;;;;;4.15;3.00;;;;;;;18.21;33.76;100984.34;5024936;28;20053;-68
2022/05/31 00:05:29;;;;;;;6.07;2.70;;;;;;;18.20;33.68;100976.28;5024105;28;20132;-69
2022/05/31 00:07:56;;;;;;;4.15;2.53;;;;;;;18.18;33.89;100979.16;5014187;28;20152;-69
2022/05/31 00:10:23;;;;;;;4.40;2.83;;;;;;;18.17;34.02;100984.81;5024377;28;20467;-69
2022/05/31 00:12:50;;;;;;;4.72;3.15;;;;;;;18.16;33.91;100974.81;5015484;28;20480;-68
2022/05/31 00:15:18;;;;;;;3.70;2.78;;;;;;;18.17;34.10;100980.16;5017830;28;20135;-69
2022/05/31 00:17:45;;;;;;;4.50;3.10;;;;;;;18.14;34.04;100977.72;5024302;28;20418;-69
2022/05/31 00:20:13;;;;;;;4.43;3.15;;;;;;;18.15;34.22;100976.69;5024205;28;20045;-69
2022/05/31 00:22:41;;;;;;;3.78;2.90;;;;;;;18.13;34.13;100975.97;5023835;28;20132;-69
2022/05/31 00:25:10;;;;;;;3.90;2.85;;;;;;;18.11;33.97;100974.41;5023164;28;20041;-69
2022/05/31 00:27:36;;;;;;;4.50;2.72;;;;;;;18.09;34.15;100973.69;5023672;28;20045;-69
2022/05/31 00:30:04;;;;;;;3.78;2.78;;;;;;;18.09;34.21;100963.56;5021934;28;20140;-69
2022/05/31 00:32:34;;;;;;;7.70;3.25;;;;;;;18.09;34.15;100979.19;5016839;28;20160;-69
2022/05/31 00:35:10;;;;;;;4.75;3.33;;;;;;;18.10;34.72;100969.91;5024383;28;20164;-69
2022/05/31 00:37:37;;;;;;;6.07;2.97;;;;;;;18.06;34.26;100966.59;5041389;28;20068;-69
2022/05/31 00:40:05;;;;;;;3.90;3.00;;;;;;;18.07;34.40;100967.47;5047587;28;20135;-69
2022/05/31 00:42:47;;;;;;;4.70;3.00;;;;;;;18.09;34.53;100974.56;5041148;28;20562;-69
2022/05/31 00:45:14;;;;;;;4.75;3.03;;;;;;;18.05;34.12;100974.97;5043282;28;20136;-69
2022/05/31 00:47:41;;;;;;;4.82;3.10;;;;;;;18.06;34.03;100976.72;5047775;28;20115;-69
2022/05/31 00:50:13;;;;;;;5.00;3.03;;;;;;;18.08;34.56;100981.06;5051012;28;20452;-69
2022/05/31 00:52:45;;;;;;;4.28;2.90;;;;;;;18.08;34.49;100978.31;5047236;28;20143;-69
2022/05/31 00:55:33;;;;;;;4.28;2.80;;;;;;;18.09;34.46;100976.44;5041556;28;20392;-69
2022/05/31 00:58:11;;;;;;;3.70;2.60;;;;;;;18.09;34.42;100969.06;5052772;28;20133;-69
2022/05/31 01:00:40;;;;;;;5.32;2.95;;;;;;;18.07;34.08;100976.56;5043385;28;20569;-69
2022/05/31 01:03:10;;;;;;;4.45;2.92;;;;;;;18.08;34.11;100966.44;5045957;28;20111;-69
2022/05/31 01:05:37;;;;;;;4.35;2.72;;;;;;;18.06;34.58;100968.47;5045702;28;20695;-69
2022/05/31 01:08:04;;;;;;;5.07;3.20;;;;;;;18.06;33.75;100962.97;5044934;28;20077;-69
2022/05/31 01:10:31;;;;;;;4.57;3.08;;;;;;;18.05;33.99;100967.59;5043006;28;20502;-69
2022/05/31 01:12:58;;;;;;;6.22;3.17;;;;;;;18.06;34.12;100966.59;5045005;28;20342;-69
2022/05/31 01:15:25;;;;;;;4.50;3.05;;;;;;;18.03;33.94;100963.28;5044549;28;20168;-69
2022/05/31 01:17:52;;;;;;;4.68;2.90;;;;;;;18.03;34.07;100969.66;5029046;28;20128;-69
2022/05/31 01:20:21;;;;;;;4.05;2.70;;;;;;;18.04;34.19;100963.13;5048736;28;20412;-69
2022/05/31 01:22:54;;;;;;;5.45;2.88;;;;;;;18.01;34.03;100966.19;5045827;28;20054;-69
2022/05/31 01:25:39;;;;;;;4.18;2.90;;;;;;;17.98;34.13;100966.47;5043374;28;20330;-69
2022/05/31 01:28:12;;;;;;;5.43;2.97;;;;;;;17.98;34.11;100962.84;5039087;28;20139;-69
2022/05/31 01:31:05;;;;;;;4.82;3.00;;;;;;;17.95;34.20;100963.16;5045730;28;20084;-68
2022/05/31 01:33:44;;;;;;;5.55;3.00;;;;;;;17.93;34.38;100967.94;5044412;28;20047;-69
2022/05/31 01:36:16;;;;;;;4.55;2.90;;;;;;;17.92;33.89;100958.81;5042376;28;20098;-68
2022/05/31 01:39:00;;;;;;;4.70;2.90;;;;;;;17.88;33.94;100950.00;5051949;28;20119;-68
2022/05/31 01:41:32;;;;;;;6.18;2.80;;;;;;;17.86;34.33;100952.03;5049129;28;20912;-68
2022/05/31 01:44:02;;;;;;;4.82;2.80;;;;;;;17.83;34.37;100945.97;5046879;28;20045;-68
2022/05/31 01:46:33;;;;;;;4.28;2.50;;;;;;;17.82;34.02;100945.09;5051660;28;20041;-68
2022/05/31 01:49:06;;;;;;;3.30;2.47;;;;;;;17.81;34.13;100943.34;5046255;28;20131;-68
2022/05/31 01:51:34;;;;;;;3.63;2.63;;;;;;;17.76;34.06;100931.97;5047177;28;20550;-68
2022/05/31 01:54:02;;;;;;;5.18;2.85;;;;;;;17.77;33.89;100938.31;5045114;28;20131;-68
2022/05/31 01:56:30;;;;;;;4.95;2.63;;;;;;;17.77;34.22;100938.31;5046161;28;20191;-68
2022/05/31 01:58:59;;;;;;;4.90;2.78;;;;;;;17.76;33.79;100934.72;5046587;28;20131;-68
2022/05/31 02:01:27;;;;;;;5.35;2.40;;;;;;;17.75;33.81;100937.59;5046608;28;20040;-68
2022/05/31 02:03:54;;;;;;;4.10;2.70;;;;;;;17.72;34.23;100932.38;5045835;28;20049;-68
2022/05/31 02:06:31;;;;;;;3.70;2.53;;;;;;;17.76;34.40;100933.84;5040671;28;20127;-71
2022/05/31 02:08:59;;;;;;;4.38;2.20;;;;;;;17.71;34.14;100923.28;5039830;28;20083;-71
2022/05/31 02:11:26;;;;;;;3.97;2.63;;;;;;;17.72;33.97;100932.38;5046033;28;20076;-71
2022/05/31 02:13:53;;;;;;;3.83;2.40;;;;;;;17.70;34.08;100929.81;5027014;28;20045;-71
2022/05/31 02:16:19;;;;;;;4.07;2.95;;;;;;;17.71;33.98;100930.66;5041961;28;20546;-71
2022/05/31 02:21:37;;;;;;;3.88;2.70;;;;;;;17.70;34.68;100927.06;5043158;28;20041;-71
2022/05/31 02:24:07;;;;;;;4.10;2.50;;;;;;;17.71;34.22;100927.91;5045116;28;20487;-71
2022/05/31 02:26:34;;;;;;;3.58;2.63;;;;;;;17.72;34.38;100922.25;5045740;28;20147;-71
2022/05/31 02:29:01;;;;;;;3.65;2.55;;;;;;;17.73;34.67;100925.88;5045150;28;20072;-70
2022/05/31 02:31:30;;;;;;;4.32;2.58;;;;;;;17.74;34.27;100928.50;5028460;28;20417;-71
2022/05/31 02:33:56;;;;;;;4.60;2.47;;;;;;;17.74;34.45;100928.50;5046326;28;20536;-71
2022/05/31 02:36:23;;;;;;;5.80;2.42;;;;;;;17.76;34.52;100925.59;5027778;28;20132;-71
2022/05/31 02:38:50;;;;;;;3.58;2.30;;;;;;;17.76;34.33;100922.84;5048440;28;20044;-71
2022/05/31 02:41:16;;;;;;;4.43;2.40;;;;;;;17.76;34.40;100923.72;5045608;28;20049;-71
2022/05/31 02:43:43;;;;;;;3.58;2.40;;;;;;;17.78;34.17;100931.81;5038951;28;20069;-71
2022/05/31 02:46:09;;;;;;;3.65;1.95;;;;;;;17.78;34.34;100920.84;5038623;28;20153;-71
2022/05/31 02:48:36;;;;;;;4.03;2.20;;;;;;;17.78;34.30;100923.59;5030653;28;20120;-71
2022/05/31 02:51:02;;;;;;;4.13;2.15;;;;;;;17.77;34.25;100930.94;5044919;28;20107;-71
2022/05/31 02:53:29;;;;;;;3.60;2.03;;;;;;;17.78;34.15;100924.44;5044433;28;20136;-71
2022/05/31 02:55:57;;;;;;;3.55;2.10;;;;;;;17.79;34.32;100925.28;5046928;28;20407;-71
2022/05/31 02:58:25;;;;;;;3.08;2.15;;;;;;;17.79;34.21;100920.66;5039744;28;20068;-71
2022/05/31 03:00:53;;;;;;;2.85;1.90;;;;;;;17.79;34.08;100919.78;5043528;28;20512;-70
2022/05/31 03:03:20;;;;;;;4.45;2.13;;;;;;;17.79;34.01;100911.56;5037316;28;20695;-71
2022/05/31 03:05:46;;;;;;;3.35;1.90;;;;;;;17.77;34.17;100911.72;5048831;28;20062;-70
2022/05/31 03:08:13;;;;;;;3.35;2.05;;;;;;;17.78;34.08;100913.47;5043402;28;20057;-71
2022/05/31 03:10:45;;;;;;;5.00;2.15;;;;;;;17.79;34.40;100912.41;5036190;28;20077;-71
2022/05/31 03:13:16;;;;;;;3.70;2.17;;;;;;;17.80;34.53;100907.78;5043262;28;20171;-71
2022/05/31 03:15:43;;;;;;;6.32;2.28;;;;;;;17.76;34.52;100904.50;5045155;28;20127;-71
2022/05/31 03:18:18;;;;;;;3.90;2.38;;;;;;;17.79;34.65;100900.56;5027246;28;20337;-71
2022/05/31 03:20:48;;;;;;;4.70;2.20;;;;;;;17.78;34.77;100907.09;5042450;28;20080;-71
2022/05/31 03:23:31;;;;;;;4.40;2.40;;;;;;;17.79;34.36;100908.81;5043917;28;20132;-71
2022/05/31 03:26:01;;;;;;;4.43;2.30;;;;;;;17.78;34.58;100907.09;5036900;28;20557;-71
2022/05/31 03:28:29;;;;;;;4.15;2.10;;;;;;;17.77;34.51;100906.22;5040282;28;20049;-71
2022/05/31 03:30:55;;;;;;;3.60;2.20;;;;;;;17.77;34.39;100910.84;5041028;28;20055;-71
2022/05/31 03:33:26;;;;;;;3.75;2.20;;;;;;;17.79;34.50;100906.06;5026859;28;20340;-71
2022/05/31 03:35:52;;;;;;;4.82;2.60;;;;;;;17.77;34.74;100910.84;5044832;28;20136;-71
2022/05/31 03:38:19;;;;;;;4.30;2.45;;;;;;;17.76;34.76;100910.00;5031096;28;20136;-71
2022/05/31 03:40:58;;;;;;;4.72;2.40;;;;;;;17.77;34.46;100905.38;5052739;28;20049;-70
2022/05/31 03:43:28;;;;;;;5.93;2.38;;;;;;;17.75;34.31;100904.63;5044425;28;20410;-71
2022/05/31 03:45:54;;;;;;;3.92;2.47;;;;;;;17.74;34.33;100903.78;5027546;28;20474;-71
2022/05/31 03:48:22;;;;;;;6.03;2.60;;;;;;;17.74;34.65;100898.28;5043512;28;20132;-71
2022/05/31 03:51:06;;;;;;;3.88;2.40;;;;;;;17.75;35.06;100900.00;5044729;28;20063;-70
2022/05/31 03:53:32;;;;;;;3.10;2.10;;;;;;;17.72;34.54;100904.91;5036863;28;20124;-71
2022/05/31 03:56:07;;;;;;;4.18;2.65;;;;;;;17.75;34.81;100904.63;5041509;28;20084;-71
2022/05/31 03:58:35;;;;;;;3.22;2.10;;;;;;;17.71;34.75;100906.81;5042142;28;20071;-71
2022/05/31 04:01:01;;;;;;;3.13;2.15;;;;;;;17.72;34.79;100902.19;5044443;28;20045;-71
2022/05/31 04:03:28;;;;;;;4.78;2.13;;;;;;;17.72;34.71;100899.44;5041955;28;20071;-71
2022/05/31 04:05:55;;;;;;;3.83;2.42;;;;;;;17.71;34.53;100895.81;5047349;28;20262;-71
2022/05/31 04:08:24;;;;;;;3.72;2.28;;;;;;;17.72;34.66;100894.81;5043676;28;20128;-71
2022/05/31 04:10:51;;;;;;;4.97;2.30;;;;;;;17.72;34.85;100891.19;5037462;28;20045;-71
2022/05/31 04:13:18;;;;;;;3.13;2.20;;;;;;;17.72;34.82;100893.94;5040371;28;20135;-70
2022/05/31 04:15:45;;;;;;;4.40;2.10;;;;;;;17.72;34.75;100896.69;5042351;28;20136;-71
2022/05/31 04:18:16;;;;;;;4.80;2.20;;;;;;;17.71;34.60;100895.81;5027427;28;20048;-72
2022/05/31 04:20:43;;;;;;;4.30;2.30;;;;;;;17.70;34.70;100905.09;5044227;28;20095;-69
2022/05/31 04:26:05;;;;;;;3.47;2.20;;;;;;;17.73;35.11;100901.16;5052831;28;20132;-70
2022/05/31 04:28:31;;;;;;;5.65;2.40;;;;;;;17.70;35.21;100906.97;5060776;28;20052;-70
2022/05/31 04:31:02;;;;;;;3.15;1.90;;;;;;;17.72;35.07;100903.03;5050129;28;20502;-71
2022/05/31 04:33:29;;;;;;;3.38;2.17;;;;;;;17.72;35.46;100900.28;5052456;28;20052;-71
2022/05/31 04:36:05;;;;;;;4.38;2.20;;;;;;;17.76;35.37;100895.38;5051455;28;20099;-71
2022/05/31 04:38:32;;;;;;;3.78;2.03;;;;;;;17.73;34.92;100888.31;5051875;28;20444;-71
2022/05/31 04:40:59;;;;;;;3.70;2.05;;;;;;;17.71;34.94;100884.81;5034150;28;20127;-71
2022/05/31 04:43:25;;;;;;;5.05;2.20;;;;;;;17.70;35.25;100885.00;5047623;28;20040;-71
2022/05/31 04:45:52;;;;;;;4.32;2.20;;;;;;;17.69;35.52;100889.63;5044493;28;20075;-72
2022/05/31 04:48:19;;;;;;;3.50;2.30;;;;;;;17.68;35.77;100885.16;5040474;28;20087;-72
2022/05/31 04:50:45;;;;;;;3.75;2.25;;;;;;;17.67;35.75;100896.28;5030639;28;20049;-71
2022/05/31 04:53:12;;;;;;;3.20;1.98;;;;;;;17.66;35.88;100889.03;5042446;28;20052;-71
2022/05/31 04:55:40;;;;;;;3.83;2.20;;;;;;;17.63;35.73;100884.69;5028806;28;20099;-71
2022/05/31 04:58:06;;;;;;;4.65;2.33;;;;;;;17.63;35.99;100892.06;5044716;28;20059;-70
2022/05/31 05:00:36;;;;;;;3.13;2.05;;;;;;;17.62;36.22;100888.50;5046169;28;20482;-71
2022/05/31 05:03:02;;;;;;;4.82;2.17;;;;;;;17.62;36.32;100888.50;5043414;28;20072;-71
2022/05/31 05:05:33;;;;;;;4.03;2.17;;;;;;;17.64;36.51;100893.81;5033402;28;20052;-71
2022/05/31 05:07:59;;;;;;;4.90;2.50;;;;;;;17.62;36.12;100887.63;5050579;28;20621;-71
2022/05/31 05:10:26;;;;;;;4.38;2.50;;;;;;;17.62;36.26;100884.88;5053779;28;20125;-72
2022/05/31 05:12:52;;;;;;;4.13;2.20;;;;;;;17.62;35.82;100884.88;5042200;28;20049;-72
2022/05/31 05:15:19;;;;;;;3.17;2.13;;;;;;;17.63;36.64;100889.31;5043466;28;20066;-73
2022/05/31 05:17:45;;;;;;;4.13;2.60;;;;;;;17.63;36.65;100889.31;5052413;28;20133;-70
2022/05/31 05:20:12;;;;;;;3.88;2.33;;;;;;;17.64;36.63;100878.19;5049334;28;20076;-71
2022/05/31 05:22:38;;;;;;;4.57;2.20;;;;;;;17.65;36.60;100885.44;5042405;28;20157;-71
2022/05/31 05:25:07;;;;;;;4.13;2.38;;;;;;;17.67;36.47;100886.16;5044891;28;20494;-71
2022/05/31 05:27:33;;;;;;;5.22;2.30;;;;;;;17.68;36.87;100893.38;5045331;28;20055;-71
2022/05/31 05:32:45;;;;;;;4.13;2.35;;;;;;;17.68;36.81;100893.38;5045314;28;20148;-70
2022/05/31 05:35:12;;;;;;;4.30;2.08;;;;;;;17.71;36.76;100894.94;5049721;28;20076;-70
2022/05/31 05:37:38;;;;;;;4.28;2.20;;;;;;;17.71;36.87;100890.31;5046524;28;20132;-72
2022/05/31 05:40:05;;;;;;;4.93;2.47;;;;;;;17.72;36.62;100881.06;5043827;28;20472;-72
2022/05/31 05:42:32;;;;;;;4.65;2.30;;;;;;;17.73;36.47;100887.44;5025670;28;20562;-72
2022/05/31 05:45:00;;;;;;;3.97;2.10;;;;;;;17.72;36.68;100886.56;5048843;28;20128;-72
2022/05/31 05:47:27;;;;;;;3.67;2.20;;;;;;;17.73;37.12;100887.44;5046655;28;20154;-71
2022/05/31 05:49:53;;;;;;;3.50;2.35;;;;;;;17.74;36.87;100891.91;5057346;28;20047;-72
2022/05/31 05:52:20;;;;;;;4.07;2.25;;;;;;;17.73;36.74;100899.28;5041604;28;21769;-72
2022/05/31 05:54:46;;;;;;;4.80;2.78;;;;;;;17.74;36.92;100903.78;5045336;28;20121;-72
2022/05/31 05:57:13;;;;;;;3.80;2.17;;;;;;;17.75;37.10;100913.75;5043181;28;20204;-71
2022/05/31 05:59:39;;;;;;;3.75;2.03;;;;;;;17.76;37.24;100910.00;5050269;28;20041;-71
2022/05/31 06:02:16;;;;;;;4.15;2.15;;;;;;;17.81;37.56;100915.91;5048765;28;20128;-71
2022/05/31 06:05:07;;;;;;;4.30;2.20;;;;;;;17.81;37.51;100926.00;5032460;28;20055;-71
2022/05/31 06:07:38;;;;;;;3.60;1.90;;;;;;;17.83;37.34;100930.34;5046608;28;20048;-71
2022/05/31 06:10:17;;;;;;;2.75;1.70;;;;;;;17.87;37.83;100926.28;5056507;28;20048;-71
2022/05/31 06:12:53;;;;;;;2.58;1.80;;;;;;;17.87;37.79;100920.78;5044096;28;20068;-71
2022/05/31 06:15:27;;;;;;;3.38;1.85;;;;;;;17.89;37.37;100915.16;5059089;28;20079;-72
2022/05/31 06:17:57;;;;;;;2.88;1.73;;;;;;;17.91;37.71;100918.63;5033236;28;20577;-70
2022/05/31 06:20:25;;;;;;;3.42;1.80;;;;;;;17.92;37.43;100912.13;5038448;28;20045;-72
2022/05/31 06:22:52;;;;;;;2.95;1.73;;;;;;;17.92;37.32;100908.50;5045206;28;20119;-71
2022/05/31 06:25:23;;;;;;;4.93;2.20;;;;;;;17.94;37.82;100910.09;5059795;28;20131;-71
2022/05/31 06:27:50;;;;;;;2.83;1.60;;;;;;;17.95;37.47;100913.72;5037610;28;20044;-71
2022/05/31 06:30:17;;;;;;;3.67;1.70;;;;;;;17.96;37.87;100910.78;5031078;28;20124;-71
2022/05/31 06:32:43;;;;;;;3.85;2.15;;;;;;;17.97;37.78;100914.41;5046941;28;20079;-71
2022/05/31 06:35:10;;;;;;;3.88;2.30;;;;;;;17.99;37.87;100924.25;5061807;28;20131;-70
2022/05/31 06:37:36;;;;;;;4.40;1.90;;;;;;;18.00;38.12;100925.97;5051258;28;20127;-71
2022/05/31 06:40:06;;;;;;;3.28;1.75;;;;;;;18.00;37.60;100915.00;5053002;28;20060;-71
2022/05/31 06:42:33;;;;;;;4.50;2.00;;;;;;;18.01;37.99;100924.97;5046481;28;20052;-72
2022/05/31 06:44:59;;;;;;;3.85;1.90;;;;;;;18.02;37.67;100934.94;5061898;28;20066;-70
2022/05/31 06:47:26;;;;;;;3.85;2.10;;;;;;;18.03;38.31;100930.31;5046861;28;20136;-71
2022/05/31 06:49:53;;;;;;;3.97;2.25;;;;;;;18.04;38.62;100932.03;5061912;28;20132;-71
2022/05/31 06:57:50;;;;;;;2.67;1.85;;;;;;;18.01;38.75;100922.22;5047400;28;20528;-70
2022/05/31 07:00:19;;;;;;;4.63;2.30;;;;;;;18.01;39.32;100916.72;5056634;28;20137;-71
2022/05/31 07:02:46;;;;;;;5.32;2.30;;;;;;;18.00;39.35;100909.50;5050952;28;20128;-70
2022/05/31 07:05:13;;;;;;;4.53;2.22;;;;;;;18.01;39.08;100915.84;5047882;28;20733;-70
2022/05/31 07:07:40;;;;;;;4.38;2.30;;;;;;;18.01;39.56;100913.13;5042517;28;20045;-71
2022/05/31 07:10:08;;;;;;;3.88;2.35;;;;;;;18.02;39.57;100912.97;5053286;28;20490;-72
2022/05/31 07:12:35;;;;;;;4.18;2.13;;;;;;;18.00;39.72;100916.88;5051671;28;20472;-71
2022/05/31 07:15:03;;;;;;;3.70;2.20;;;;;;;18.00;40.08;100917.75;5044587;28;20049;-71
2022/05/31 07:17:29;;;;;;;3.53;2.25;;;;;;;18.02;40.31;100912.09;5046360;28;20140;-71
2022/05/31 07:19:57;;;;;;;5.40;2.40;;;;;;;18.04;40.57;100912.78;5054881;28;20048;-71
2022/05/31 07:22:37;;;;;;;4.57;2.30;;;;;;;18.05;40.71;100909.91;5046243;28;20555;-71
2022/05/31 07:25:05;;;;;;;4.43;2.33;;;;;;;18.08;40.98;100901.38;5041305;28;20132;-71
2022/05/31 07:27:33;;;;;;;4.30;2.30;;;;;;;18.10;40.91;100898.47;5053188;28;20123;-71
2022/05/31 07:30:00;;;;;;;4.93;2.20;;;;;;;18.12;40.98;100902.78;5055688;28;20484;-71
2022/05/31 07:32:26;;;;;;;3.78;2.38;;;;;;;18.15;40.91;100897.00;5058815;28;20053;-72
2022/05/31 07:35:13;;;;;;;4.20;2.22;;;;;;;18.17;40.75;100903.22;5050098;28;20053;-72
2022/05/31 07:37:40;;;;;;;4.35;2.30;;;;;;;18.22;40.78;100902.75;5056715;28;20044;-71
2022/05/31 07:40:09;;;;;;;4.03;2.42;;;;;;;18.26;40.86;100904.22;5041429;28;20132;-71
2022/05/31 07:42:36;;;;;;;3.72;2.35;;;;;;;18.29;40.78;100898.38;5056686;28;20493;-72
2022/05/31 07:45:03;;;;;;;3.78;2.22;;;;;;;18.32;40.81;100895.34;5047476;28;20518;-72
2022/05/31 07:47:30;;;;;;;4.30;2.42;;;;;;;18.36;40.67;100895.94;5046813;28;20106;-71
2022/05/31 07:49:56;;;;;;;3.85;2.08;;;;;;;18.38;40.82;100897.47;5047020;28;20055;-72
2022/05/31 07:52:23;;;;;;;3.78;2.42;;;;;;;18.40;41.17;100897.34;5052574;28;20044;-71
2022/05/31 07:54:49;;;;;;;4.30;2.28;;;;;;;18.41;40.89;100902.69;5062904;28;20128;-71
2022/05/31 08:00:02;;;;;;;4.68;2.40;;;;;;;18.42;40.69;100898.06;5057441;28;20088;-71
2022/05/31 08:02:29;;;;;;;3.33;1.95;;;;;;;18.44;41.26;100896.91;5050076;28;20420;-72
2022/05/31 08:04:55;;;;;;;3.78;2.35;;;;;;;18.45;41.34;100889.47;5064910;22;20035;-67
2022/05/31 08:07:22;;;;;;;3.35;2.15;;;;;;;18.47;40.78;100895.72;5025193;28;20136;-68
2022/05/31 08:09:48;;;;;;;3.38;1.98;;;;;;;18.48;41.13;100901.06;5012491;28;20140;-67
2022/05/31 08:12:15;;;;;;;3.55;2.05;;;;;;;18.50;40.94;100900.91;5029791;28;20092;-68
2022/05/31 08:14:41;;;;;;;3.30;2.10;;;;;;;18.50;40.66;100896.28;5027757;28;20561;-69
2022/05/31 08:17:10;;;;;;;3.17;1.80;;;;;;;18.51;40.83;100898.00;5029582;28;20072;-68
2022/05/31 08:19:43;;;;;;;2.97;1.73;;;;;;;18.52;40.92;100888.75;5030199;28;20049;-67
2022/05/31 08:22:11;;;;;;;2.58;1.80;;;;;;;18.54;40.71;100894.94;5029889;28;20107;-68
2022/05/31 08:24:38;;;;;;;2.95;1.77;;;;;;;18.56;40.90;100892.03;5030219;28;20050;-67
2022/05/31 08:27:10;;;;;;;2.70;1.77;;;;;;;18.54;41.17;100886.69;5029485;28;20053;-67
2022/05/31 08:29:36;;;;;;;3.63;2.13;;;;;;;18.58;40.69;100877.16;5030849;28;20756;-68
2022/05/31 08:32:03;;;;;;;3.47;2.10;;;;;;;18.60;41.13;100874.28;5014028;28;20073;-68
2022/05/31 08:34:30;;;;;;;4.57;2.33;;;;;;;18.61;41.10;100887.00;5030012;28;20041;-67
2022/05/31 08:36:57;;;;;;;3.95;2.10;;;;;;;18.62;40.97;100883.19;5013468;28;20096;-68
2022/05/31 08:39:24;;;;;;;3.30;1.85;;;;;;;18.62;40.77;100892.31;5029218;28;20073;-68
2022/05/31 08:41:57;;;;;;;2.65;1.60;;;;;;;18.63;40.71;100891.31;5026280;28;20390;-67
2022/05/31 08:44:46;;;;;;;3.03;1.70;;;;;;;18.63;40.66;100891.31;5029463;28;20069;-68
2022/05/31 08:47:38;;;;;;;2.17;1.38;;;;;;;18.62;40.12;100892.31;5017282;28;20397;-67
2022/05/31 08:53:09;;;;;;;3.53;1.60;;;;;;;18.65;40.15;100893.03;5028430;28;20112;-67
2022/05/31 08:58:39;;;;;;;3.08;1.65;;;;;;;18.70;40.38;100897.06;5028487;28;20464;-67
2022/05/31 09:01:08;;;;;;;2.90;1.70;;;;;;;18.71;40.28;100897.91;5029733;28;20081;-67
2022/05/31 09:03:45;;;;;;;2.80;1.83;;;;;;;18.75;40.40;100889.22;5028695;28;20124;-68
2022/05/31 09:06:28;;;;;;;3.88;2.10;;;;;;;18.78;40.39;100896.28;5025552;28;20069;-67
2022/05/31 09:09:04;;;;;;;2.90;1.48;;;;;;;18.78;39.59;100894.41;5027596;28;20167;-68
2022/05/31 09:11:39;;;;;;;2.58;1.40;;;;;;;18.84;39.53;100892.94;5029681;28;20501;-68
2022/05/31 09:14:11;;;;;;;2.72;1.58;;;;;;;18.87;39.63;100884.34;5028268;28;20132;-67
2022/05/31 09:16:53;;;;;;;2.47;1.50;;;;;;;18.88;39.62;100884.19;5029344;28;20075;-67
2022/05/31 09:19:41;;;;;;;2.22;1.40;;;;;;;18.89;39.03;100888.69;5028662;28;20053;-67
2022/05/31 09:22:08;;;;;;;2.10;1.33;;;;;;;18.90;39.18;100884.91;5025173;28;20129;-67
2022/05/31 09:24:44;;;;;;;3.33;1.70;;;;;;;18.96;39.01;100884.28;5029223;28;20306;-67
2022/05/31 09:27:40;;;;;;;3.28;1.70;;;;;;;18.95;39.12;100884.44;5028607;28;20136;-67
2022/05/31 09:30:09;;;;;;;2.10;1.40;;;;;;;18.97;39.48;100885.16;5025821;28;20088;-67
2022/05/31 09:33:06;;;;;;;2.63;1.60;;;;;;;19.02;39.22;100880.06;5010521;28;20470;-68
2022/05/31 09:35:53;;;;;;;3.50;1.70;;;;;;;19.06;39.26;100877.84;5029579;28;20152;-67
2022/05/31 09:38:40;;;;;;;3.10;1.70;;;;;;;19.05;39.79;100879.75;5028380;28;20609;-68
2022/05/31 09:41:28;;;;;;;3.03;1.77;;;;;;;19.07;39.88;100869.44;5029047;28;20055;-67
2022/05/31 09:44:27;;;;;;;3.85;1.73;;;;;;;19.11;39.52;100868.09;5027568;28;20509;-67
2022/05/31 09:47:05;;;;;;;3.58;2.00;;;;;;;19.16;39.32;100871.25;5022034;28;20045;-68
2022/05/31 09:49:40;;;;;;;3.33;2.00;;;;;;;19.20;39.78;100875.41;5028386;28;20045;-67
2022/05/31 09:52:11;;;;;;;4.70;2.25;;;;;;;19.23;39.77;100877.00;5015334;28;20145;-68
2022/05/31 09:58:15;;;;;;;3.83;1.90;;;;;;;19.28;39.48;100885.63;5028095;28;20548;-68
2022/05/31 10:01:01;;;;;;;3.22;1.85;;;;;;;19.41;40.45;100879.75;5029426;28;20049;-68
2022/05/31 10:03:40;;;;;;;3.85;1.83;;;;;;;19.54;40.63;100891.22;5026172;28;20137;-68
2022/05/31 10:06:22;;;;;;;3.15;2.03;;;;;;;19.65;40.59;100878.09;5026934;28;20141;-68
2022/05/31 10:08:54;;;;;;;2.80;1.75;;;;;;;19.76;40.75;100875.03;5025810;28;20396;-68
2022/05/31 10:11:37;;;;;;;3.00;1.90;;;;;;;19.96;39.99;100872.09;5029008;28;20069;-67
2022/05/31 10:14:13;;;;;;;3.00;2.00;;;;;;;20.09;40.17;100865.09;5010221;28;20457;-68
2022/05/31 10:16:40;;;;;;;3.20;1.73;;;;;;;20.24;39.86;100867.25;5028288;28;20073;-68
2022/05/31 10:19:19;;;;;;;3.90;2.30;;;;;;;20.40;39.56;100857.22;5026635;28;20053;-68
2022/05/31 10:21:46;;;;;;;3.60;2.10;;;;;;;20.53;38.86;100853.97;5028119;28;20493;-69
2022/05/31 10:24:20;;;;;;;4.05;2.00;;;;;;;20.70;38.95;100854.88;5027311;28;20120;-68
2022/05/31 10:27:13;;;;;;;3.85;1.90;;;;;;;20.80;38.41;100861.13;5028175;28;20054;-67
2022/05/31 10:29:50;;;;;;;2.83;1.63;;;;;;;20.93;38.47;100849.59;5017960;28;20088;-67
2022/05/31 10:32:24;;;;;;;3.70;1.95;;;;;;;21.05;38.28;100846.34;5027190;28;20136;-68
2022/05/31 10:35:15;;;;;;;4.68;2.28;;;;;;;21.16;37.99;100853.44;5027309;28;20129;-68
2022/05/31 10:37:55;;;;;;;3.95;2.17;;;;;;;21.25;37.14;100847.75;5018073;28;20099;-68
2022/05/31 10:40:54;;;;;;;3.38;1.83;;;;;;;21.32;37.82;100853.50;5027578;28;20068;-68
2022/05/31 10:43:33;;;;;;;3.33;1.70;;;;;;;21.38;37.82;100841.75;5001786;28;20080;-68
2022/05/31 10:46:09;;;;;;;3.25;2.08;;;;;;;21.49;36.73;100848.84;5027959;28;20132;-69
2022/05/31 10:48:50;;;;;;;3.63;1.95;;;;;;;21.54;36.90;100835.34;5027539;28;20045;-68
2022/05/31 10:51:24;;;;;;;3.28;2.00;;;;;;;21.55;37.18;100826.88;5027203;28;20139;-68
2022/05/31 10:54:19;;;;;;;3.17;1.80;;;;;;;21.58;36.55;100829.28;5027088;28;20041;-69
2022/05/31 10:57:04;;;;;;;3.83;2.20;;;;;;;21.67;36.15;100832.91;5028694;28;20752;-69
2022/05/31 10:59:41;;;;;;;3.65;1.83;;;;;;;21.68;36.08;100828.25;5027618;28;20084;-69
2022/05/31 11:02:55;;;;;;;3.70;2.03;;;;;;;21.70;36.28;100828.94;5026667;28;20053;-70
2022/05/31 11:05:37;;;;;;;2.95;1.70;;;;;;;21.72;36.30;100827.72;5009383;28;20056;-68
2022/05/31 11:11:51;;;;;;;3.20;1.83;;;;;;;21.80;36.27;100824.94;5026999;28;20085;-68
2022/05/31 11:14:30;;;;;;;2.88;1.65;;;;;;;21.84;36.50;100823.53;5009001;28;20042;-68
2022/05/31 11:17:12;;;;;;;3.10;1.85;;;;;;;21.91;35.77;100821.78;5027734;28;20129;-68
2022/05/31 11:20:12;;;;;;;3.50;1.85;;;;;;;21.93;35.07;100824.38;5014798;28;20359;-68
2022/05/31 11:23:02;;;;;;;3.33;1.80;;;;;;;22.04;34.69;100824.06;4989240;28;20502;-68
2022/05/31 11:25:48;;;;;;;2.65;1.67;;;;;;;22.15;34.38;100829.22;5026162;28;20049;-69
2022/05/31 11:28:48;;;;;;;2.80;1.50;;;;;;;22.22;35.01;100821.94;5021610;28;20049;-69
2022/05/31 11:31:23;;;;;;;2.75;1.60;;;;;;;22.33;34.06;100831.72;5026074;28;20469;-68
2022/05/31 11:34:31;;;;;;;3.20;1.70;;;;;;;22.38;34.40;100821.84;5026385;28;20084;-68
2022/05/31 11:37:32;;;;;;;2.70;1.60;;;;;;;22.47;34.47;100832.88;5027230;28;20449;-69
2022/05/31 11:40:19;;;;;;;3.17;1.55;;;;;;;22.58;33.54;100822.25;4921087;29;20474;-68
2022/05/31 11:43:19;;;;;;;2.22;1.52;;;;;;;22.68;33.86;100830.34;5015374;28;20065;-68
2022/05/31 11:45:57;;;;;;;2.25;1.45;;;;;;;22.77;33.26;100827.38;5016698;28;20053;-68
2022/05/31 11:48:51;;;;;;;3.05;1.63;;;;;;;22.86;33.39;100828.19;5027617;28;20832;-68
2022/05/31 11:51:24;;;;;;;3.10;1.70;;;;;;;22.90;33.50;100817.59;5013143;28;20068;-69
2022/05/31 11:54:04;;;;;;;3.03;1.90;;;;;;;23.00;32.42;100816.31;5026899;28;20046;-68
2022/05/31 11:57:13;;;;;;;3.38;1.92;;;;;;;23.05;32.18;100824.09;5028010;28;20513;-68
2022/05/31 12:00:05;;;;;;;2.97;1.88;;;;;;;23.08;32.62;100819.03;5026315;28;20114;-71
2022/05/31 12:02:58;;;;;;;2.63;1.70;;;;;;;23.11;32.67;100818.69;5020688;28;20124;-71
2022/05/31 12:05:33;;;;;;;3.95;2.13;;;;;;;23.20;31.24;100819.47;5004341;28;20085;-71
2022/05/31 12:08:09;;;;;;;4.25;2.00;;;;;;;23.27;31.09;100805.75;5022376;28;20050;-71
2022/05/31 12:10:47;;;;;;;3.33;1.65;;;;;;;23.31;31.13;100809.84;5009461;28;20088;-71
2022/05/31 12:13:15;;;;;;;3.63;1.80;;;;;;;23.33;31.95;100819.69;5025937;28;20056;-71
2022/05/31 12:15:45;;;;;;;3.42;1.90;;;;;;;23.39;31.62;100810.63;5018830;28;20134;-72
2022/05/31 12:18:18;;;;;;;3.10;1.88;;;;;;;23.46;31.04;100802.47;5021481;28;20049;-71